Time;durP1;ratioP1;P1;durP2;ratioP2;P2;SDS_P1;SDS_P2;PMS_P1;PMS_P2;Temp;Humidity;BMP_temperature;BMP_pressure;BME280_temperature;BME280_humidity;BME280_pressure;Samples;Min_cycle;Max_cycle;Signal;HPM_P1;HPM_P2
2022/05/05 00:00:49;;;;;;;10.80;6.95;;;5.70;99.90;;;;;;21129143;28;20435;-52
2022/05/05 00:21:12;;;;;;;8.10;5.40;;;6.00;99.90;;;;;;21128580;28;20040;-49
2022/05/05 00:31:15;;;;;;;9.90;5.95;;;6.40;99.90;;;;;;21127645;28;20112;-57
2022/05/05 00:41:18;;;;;;;8.52;5.90;;;6.30;99.90;;;;;;21127023;28;20076;-52
2022/05/05 00:51:20;;;;;;;10.98;5.32;;;5.90;99.90;;;;;;21110422;28;20061;-51
2022/05/05 01:01:23;;;;;;;12.32;6.18;;;5.60;99.90;;;;;;21127590;28;20541;-51
2022/05/05 01:11:28;;;;;;;10.68;6.70;;;5.40;99.90;;;;;;21126156;28;20031;-52
2022/05/05 01:21:31;;;;;;;13.88;6.90;;;5.40;99.90;;;;;;21125568;28;20529;-57
2022/05/05 01:31:34;;;;;;;14.98;6.88;;;5.90;99.90;;;;;;21132812;28;20088;-58
2022/05/05 01:41:36;;;;;;;9.93;6.25;;;6.50;99.90;;;;;;21140330;28;20112;-51
2022/05/05 01:51:39;;;;;;;12.52;6.97;;;6.80;99.90;;;;;;21139206;28;20391;-51
2022/05/05 02:01:41;;;;;;;22.52;8.57;;;6.40;99.90;;;;;;21138737;28;20401;-52
2022/05/05 02:11:43;;;;;;;19.20;9.32;;;6.00;99.90;;;;;;21138715;28;20035;-51
2022/05/05 02:21:46;;;;;;;13.02;7.35;;;5.70;99.90;;;;;;21137331;27;20093;-51
2022/05/05 02:31:51;;;;;;;14.52;8.02;;;5.50;99.90;;;;;;21138874;28;20437;-50
2022/05/05 02:41:53;;;;;;;11.18;7.47;;;5.50;99.90;;;;;;21134103;28;20610;-49
2022/05/05 02:51:56;;;;;;;12.15;7.55;;;5.70;99.90;;;;;;21134498;28;20035;-51
2022/05/05 03:01:58;;;;;;;13.80;7.65;;;6.00;99.90;;;;;;21135119;28;20036;-51
2022/05/05 03:12:01;;;;;;;10.85;6.90;;;6.30;99.90;;;;;;21132680;28;20040;-51
2022/05/05 03:22:04;;;;;;;13.85;7.70;;;6.30;99.90;;;;;;21216011;27;20068;-51
2022/05/05 03:32:07;;;;;;;13.60;8.55;;;6.10;99.90;;;;;;21200296;27;20035;-52
2022/05/05 03:42:10;;;;;;;12.38;7.95;;;5.90;99.90;;;;;;21137453;27;20077;-50
2022/05/05 03:52:12;;;;;;;12.80;8.40;;;5.80;99.90;;;;;;21129302;28;20826;-53
2022/05/05 04:02:15;;;;;;;14.98;8.90;;;5.60;99.90;;;;;;21128998;28;20036;-52
2022/05/05 04:12:17;;;;;;;10.23;6.80;;;5.70;99.90;;;;;;21128197;28;20053;-58
2022/05/05 04:22:19;;;;;;;9.93;6.43;;;6.00;99.90;;;;;;21128064;28;20039;-58
2022/05/05 04:32:22;;;;;;;7.90;5.45;;;6.40;99.90;;;;;;21127462;28;20077;-52
2022/05/05 04:42:28;;;;;;;8.25;4.90;;;6.80;99.90;;;;;;21126941;28;20043;-50
2022/05/05 04:52:31;;;;;;;9.38;5.05;;;7.20;99.90;;;;;;21127618;28;20065;-52
2022/05/05 05:02:34;;;;;;;10.20;4.78;;;7.40;99.90;;;;;;21128014;28;20554;-52
2022/05/05 05:12:36;;;;;;;5.00;3.25;;;7.70;99.90;;;;;;21142722;28;20035;-57
2022/05/05 05:22:39;;;;;;;4.25;2.72;;;8.10;99.90;;;;;;21141742;28;20088;-58
2022/05/05 05:32:41;;;;;;;6.13;3.03;;;8.40;99.90;;;;;;21141053;28;20036;-51
2022/05/05 05:42:44;;;;;;;6.07;3.60;;;8.80;99.90;;;;;;21123573;28;20035;-50
2022/05/05 05:52:47;;;;;;;4.30;3.13;;;9.50;99.90;;;;;;21135730;28;20040;-51
2022/05/05 06:13:10;;;;;;;7.28;4.90;;;11.00;99.90;;;;;;21139102;28;20500;-53
2022/05/05 06:23:13;;;;;;;8.88;5.63;;;11.10;99.90;;;;;;21137229;28;20545;-59
2022/05/05 06:33:16;;;;;;;9.13;5.38;;;12.70;99.90;;;;;;21136274;28;20089;-53
2022/05/05 06:43:19;;;;;;;6.15;5.20;;;15.30;99.90;;;;;;21135526;28;20047;-55
2022/05/05 06:53:21;;;;;;;6.03;4.22;;;15.60;99.90;;;;;;21134969;28;20077;-54
2022/05/05 07:03:24;;;;;;;6.95;4.68;;;16.70;99.90;;;;;;21146827;28;20397;-55
2022/05/05 07:13:27;;;;;;;7.55;6.15;;;17.10;99.90;;;;;;21133008;28;20055;-55
2022/05/05 07:23:30;;;;;;;9.68;6.95;;;16.70;99.90;;;;;;21132126;28;20171;-54
2022/05/05 07:33:34;;;;;;;8.60;6.13;;;15.60;99.90;;;;;;21130760;28;20032;-54
2022/05/05 07:43:38;;;;;;;9.50;5.20;;;14.80;99.90;;;;;;21130559;28;20048;-60
2022/05/05 07:53:40;;;;;;;8.45;5.57;;;14.70;99.60;;;;;;21131996;28;20063;-60
2022/05/05 08:03:43;;;;;;;7.50;5.70;;;15.00;99.90;;;;;;21129248;28;20084;-52
2022/05/05 08:13:45;;;;;;;8.15;5.97;;;15.50;99.90;;;;;;21128668;28;20039;-54
2022/05/05 08:23:48;;;;;;;6.32;4.50;;;15.70;99.90;;;;;;21128280;28;20043;-58
2022/05/05 08:33:50;;;;;;;6.75;4.68;;;15.70;99.90;;;;;;21127590;28;20058;-54
2022/05/05 08:43:53;;;;;;;8.70;5.32;;;16.20;99.90;;;;;;21139647;28;20052;-54
2022/05/05 08:53:58;;;;;;;7.82;5.82;;;16.70;99.90;;;;;;21144219;28;20043;-55
2022/05/05 09:04:03;;;;;;;7.38;4.97;;;16.60;99.90;;;;;;21143432;28;20112;-60
2022/05/05 09:14:09;;;;;;;8.75;5.65;;;16.20;99.90;;;;;;21224180;27;20499;-53
2022/05/05 09:34:32;;;;;;;7.97;5.35;;;16.00;99.90;;;;;;21142349;28;20043;-60
2022/05/05 09:44:45;;;;;;;7.68;5.82;;;15.90;99.90;;;;;;21139871;28;20099;-60
2022/05/05 10:05:10;;;;;;;8.75;6.07;;;15.50;99.90;;;;;;21138574;28;20039;-60
2022/05/05 10:15:13;;;;;;;9.07;6.25;;;15.30;99.90;;;;;;21137441;28;20505;-60
2022/05/05 10:25:22;;;;;;;7.35;6.03;;;15.30;99.90;;;;;;21136816;28;20043;-60
2022/05/05 10:35:26;;;;;;;7.65;5.80;;;15.10;99.90;;;;;;21136051;28;20081;-60
2022/05/05 10:45:32;;;;;;;9.00;6.55;;;15.10;99.90;;;;;;21134851;28;20043;-60
2022/05/05 10:55:48;;;;;;;8.10;6.15;;;15.00;99.90;;;;;;21135151;28;20054;-60
2022/05/05 11:06:11;;;;;;;7.70;6.25;;;15.20;99.90;;;;;;21132299;28;20093;-61
2022/05/05 11:27:23;;;;;;;9.85;6.85;;;15.60;99.90;;;;;;20968868;28;20449;-61
2022/05/05 11:37:27;;;;;;;12.68;6.65;;;15.70;99.90;;;;;;20953992;28;20105;-60
2022/05/05 11:47:30;;;;;;;8.68;6.47;;;15.60;99.90;;;;;;21017808;28;20095;-61
2022/05/05 11:57:40;;;;;;;7.93;5.65;;;15.50;99.90;;;;;;21047441;28;20044;-60
2022/05/05 12:07:46;;;;;;;8.13;6.15;;;15.50;99.90;;;;;;21059488;28;20036;-60
2022/05/05 12:17:57;;;;;;;10.05;6.68;;;15.20;99.90;;;;;;21043769;28;20090;-60
2022/05/05 12:28:04;;;;;;;10.02;6.65;;;15.10;99.90;;;;;;21041094;28;20036;-61
2022/05/05 12:38:08;;;;;;;9.02;6.45;;;15.20;99.90;;;;;;21059186;28;20439;-62
2022/05/05 12:48:12;;;;;;;9.70;7.32;;;15.40;99.90;;;;;;21059303;28;20051;-62
2022/05/05 13:08:36;;;;;;;7.75;5.53;;;16.10;99.90;;;;;;21058702;28;20443;-62
2022/05/05 13:18:39;;;;;;;6.75;5.80;;;15.90;99.90;;;;;;21058053;28;20028;-61
2022/05/05 13:28:41;;;;;;;6.55;5.65;;;15.50;99.90;;;;;;21066587;28;20100;-61
2022/05/05 13:38:44;;;;;;;9.05;6.90;;;14.70;99.90;;;;;;21072045;28;20093;-60
2022/05/05 13:48:46;;;;;;;8.18;6.28;;;14.30;99.90;;;;;;21054729;28;20044;-60
2022/05/05 13:58:50;;;;;;;7.78;5.75;;;13.90;99.90;;;;;;21070783;28;20097;-61
2022/05/05 14:19:13;;;;;;;9.05;6.88;;;13.70;99.90;;;;;;21069967;28;20044;-60
2022/05/05 14:29:15;;;;;;;12.32;7.97;;;13.10;99.90;;;;;;21068754;28;20412;-61
2022/05/05 14:39:18;;;;;;;12.60;8.13;;;12.70;99.90;;;;;;21068117;28;20492;-53
2022/05/05 14:49:20;;;;;;;8.35;5.28;;;12.20;99.90;;;;;;21067139;28;20101;-60
2022/05/05 14:59:25;;;;;;;11.77;6.53;;;11.80;99.90;;;;;;21067379;28;20037;-61
2022/05/05 15:09:28;;;;;;;8.68;6.40;;;11.50;99.90;;;;;;21065431;28;20105;-59
2022/05/05 15:19:31;;;;;;;7.57;6.10;;;10.80;99.90;;;;;;21064764;28;20085;-57
2022/05/05 15:29:34;;;;;;;7.35;5.68;;;10.00;99.90;;;;;;21064206;28;20057;-50
2022/05/05 15:39:36;;;;;;;7.43;5.45;;;9.30;99.90;;;;;;21063574;28;20040;-52
2022/05/05 15:49:40;;;;;;;9.18;5.32;;;9.20;99.90;;;;;;21212989;27;20047;-56
2022/05/05 15:59:43;;;;;;;11.98;6.82;;;9.10;99.90;;;;;;21213853;27;20031;-49
2022/05/05 16:09:47;;;;;;;10.82;6.78;;;9.00;99.90;;;;;;21196445;27;20042;-50
2022/05/05 16:19:50;;;;;;;11.73;7.68;;;8.80;99.90;;;;;;21139892;28;20047;-51
2022/05/05 16:30:07;;;;;;;10.77;7.18;;;8.60;99.90;;;;;;21127708;28;20035;-46
2022/05/05 16:40:16;;;;;;;11.48;7.30;;;8.50;99.90;;;;;;21124974;28;20051;-53
2022/05/05 16:50:21;;;;;;;9.18;6.20;;;8.40;99.90;;;;;;21165217;28;20047;-49
2022/05/05 17:00:25;;;;;;;10.20;7.55;;;8.20;99.90;;;;;;21131501;28;20392;-50
2022/05/05 17:10:29;;;;;;;12.70;8.15;;;8.00;99.90;;;;;;21142542;28;20460;-48
2022/05/05 17:20:32;;;;;;;16.02;9.90;;;7.70;99.90;;;;;;21142029;28;20039;-55
2022/05/05 17:30:35;;;;;;;16.45;9.93;;;7.60;99.90;;;;;;21140880;28;20097;-48
2022/05/05 17:40:38;;;;;;;17.20;9.48;;;7.40;99.90;;;;;;21140563;28;20043;-50
2022/05/05 17:50:41;;;;;;;16.08;9.23;;;7.30;99.90;;;;;;21139804;28;20514;-51
2022/05/05 18:00:43;;;;;;;12.63;8.90;;;7.30;99.90;;;;;;21139007;28;20039;-46
2022/05/05 18:10:47;;;;;;;14.07;9.07;;;7.30;99.90;;;;;;21172065;27;20040;-53
2022/05/05 18:20:50;;;;;;;13.27;9.68;;;7.30;99.90;;;;;;21137395;28;20027;-47
2022/05/05 18:30:53;;;;;;;14.18;9.25;;;7.30;99.90;;;;;;21151879;27;21021;-48
2022/05/05 18:41:00;;;;;;;12.13;8.73;;;7.30;99.90;;;;;;21220481;27;20100;-47
2022/05/05 18:51:08;;;;;;;13.63;8.40;;;7.30;99.90;;;;;;21219783;27;20039;-50
2022/05/05 19:01:18;;;;;;;16.52;9.75;;;7.20;99.90;;;;;;21218834;27;20087;-47
2022/05/05 19:11:23;;;;;;;12.05;8.27;;;7.20;99.90;;;;;;21141976;28;20023;-54
2022/05/05 19:21:26;;;;;;;10.07;6.57;;;7.10;99.90;;;;;;21149865;28;20099;-48
2022/05/05 19:31:31;;;;;;;8.75;5.45;;;7.10;99.90;;;;;;21146667;28;20036;-50
2022/05/05 19:41:37;;;;;;;8.57;5.68;;;7.10;99.90;;;;;;21130997;28;20052;-46
2022/05/05 19:51:43;;;;;;;8.30;5.28;;;7.10;99.90;;;;;;21080118;28;20044;-53
2022/05/05 20:01:49;;;;;;;9.25;5.32;;;7.10;99.90;;;;;;21129254;28;20039;-49
2022/05/05 20:11:55;;;;;;;9.65;6.25;;;7.10;99.90;;;;;;21128579;28;20119;-51
2022/05/05 20:21:58;;;;;;;9.60;6.72;;;7.00;99.90;;;;;;21127973;28;20027;-49
2022/05/05 20:32:07;;;;;;;9.50;5.80;;;7.00;99.90;;;;;;21127395;28;20040;-45
2022/05/05 20:42:10;;;;;;;8.93;5.40;;;7.00;99.90;;;;;;21127105;28;20437;-50
2022/05/05 20:52:13;;;;;;;7.43;4.50;;;7.00;99.90;;;;;;21126345;28;20039;-44
2022/05/05 21:02:15;;;;;;;6.68;4.18;;;7.10;99.90;;;;;;21126380;28;20044;-52
2022/05/05 21:12:19;;;;;;;8.80;5.50;;;7.20;99.90;;;;;;21125784;28;20488;-51
2022/05/05 21:32:42;;;;;;;6.43;4.45;;;7.10;99.90;;;;;;21124805;28;20093;-46
2022/05/05 21:42:45;;;;;;;5.72;4.15;;;7.10;99.90;;;;;;21128017;28;20073;-50
2022/05/05 21:52:48;;;;;;;4.63;3.15;;;7.00;99.90;;;;;;21138133;28;20105;-45
2022/05/05 22:02:50;;;;;;;2.80;2.15;;;6.90;99.90;;;;;;21138813;28;20096;-51
2022/05/05 22:12:54;;;;;;;3.25;2.17;;;6.90;99.90;;;;;;21137852;28;20092;-43
2022/05/05 22:22:57;;;;;;;2.22;1.60;;;6.80;99.90;;;;;;21137156;28;20062;-52
2022/05/05 22:33:00;;;;;;;2.63;1.70;;;6.80;99.90;;;;;;21187469;27;20035;-43
2022/05/05 22:43:03;;;;;;;2.90;1.65;;;6.80;99.90;;;;;;21200578;27;20040;-50
2022/05/05 22:53:05;;;;;;;2.42;1.95;;;6.70;99.90;;;;;;21134515;28;20073;-48
2022/05/05 23:03:08;;;;;;;2.55;1.85;;;6.80;99.90;;;;;;21115965;28;20035;-48
2022/05/05 23:13:12;;;;;;;2.92;2.10;;;6.80;99.90;;;;;;21134178;28;20039;-46
2022/05/05 23:23:14;;;;;;;3.70;2.00;;;6.80;99.90;;;;;;21132362;28;20036;-49
2022/05/05 23:33:17;;;;;;;3.97;1.73;;;6.70;99.90;;;;;;21131415;28;20031;-47
2022/05/05 23:43:20;;;;;;;2.42;1.50;;;6.70;99.90;;;;;;21130612;27;20044;-45
2022/05/05 23:53:22;;;;;;;3.05;2.20;;;6.60;99.90;;;;;;21129822;28;20035;-45
